createdAt,value
2016-05-18T00:00:49.400Z,0
2016-05-18T00:01:49.746Z,0
2016-05-18T00:02:49.781Z,0
2016-05-18T00:03:49.658Z,0
2016-05-18T00:04:49.849Z,0
2016-05-18T00:05:49.867Z,0
2016-05-18T00:06:49.760Z,0
2016-05-18T00:07:50.122Z,0
2016-05-18T00:08:49.827Z,0
2016-05-18T00:09:50.049Z,0
2016-05-18T00:10:49.911Z,0
2016-05-18T00:11:50.086Z,0
2016-05-18T00:12:50.104Z,0
2016-05-18T00:13:49.998Z,0
2016-05-18T00:14:50.032Z,0
2016-05-18T00:15:50.221Z,0
2016-05-18T00:16:50.240Z,0
2016-05-18T00:17:50.274Z,0
2016-05-18T00:18:50.324Z,0
2016-05-18T00:19:50.185Z,0
2016-05-18T00:20:50.392Z,0
2016-05-18T00:21:50.409Z,0
2016-05-18T00:22:50.912Z,0
2016-05-18T00:23:50.337Z,0
2016-05-18T00:24:50.386Z,0
2016-05-18T00:25:50.562Z,0
2016-05-18T00:26:50.579Z,0
2016-05-18T00:27:50.456Z,0
2016-05-18T00:28:50.647Z,0
2016-05-18T00:29:50.681Z,0
2016-05-18T00:30:50.731Z,0
2016-05-18T00:31:50.592Z,0
2016-05-18T00:32:50.628Z,0
2016-05-18T00:33:50.817Z,0
2016-05-18T00:34:50.569Z,0
2016-05-18T00:35:50.744Z,0
2016-05-18T00:36:50.903Z,0
2016-05-18T00:37:51.515Z,0
2016-05-18T00:38:50.831Z,0
2016-05-18T00:39:51.021Z,0
2016-05-18T00:40:51.054Z,0
2016-05-18T00:41:51.089Z,0
2016-05-18T00:42:50.966Z,0
2016-05-18T00:43:51.156Z,0
2016-05-18T00:44:51.191Z,0
2016-05-18T00:45:51.224Z,0
2016-05-18T00:46:51.258Z,0
2016-05-18T00:47:51.135Z,0
2016-05-18T00:48:51.326Z,0
2016-05-18T00:49:51.359Z,0
2016-05-18T00:50:51.394Z,0
2016-05-18T00:51:51.412Z,0
2016-05-18T00:52:51.634Z,0
2016-05-18T00:53:51.512Z,0
2016-05-18T00:54:51.529Z,0
2016-05-18T00:55:51.564Z,0
2016-05-18T00:56:51.597Z,0
2016-05-18T00:57:51.475Z,0
2016-05-18T00:58:51.650Z,0
2016-05-18T00:59:51.700Z,0
2016-05-18T01:00:51.561Z,0
2016-05-18T01:01:51.595Z,0
2016-05-18T01:02:51.489Z,0
2016-05-18T01:03:51.678Z,0
2016-05-18T01:04:51.869Z,0
2016-05-18T01:05:51.888Z,0
2016-05-18T01:06:51.937Z,0
2016-05-18T01:07:52.611Z,0
2016-05-18T01:08:52.005Z,0
2016-05-18T01:09:52.024Z,0
2016-05-18T01:10:52.057Z,0
2016-05-18T01:11:52.075Z,0
2016-05-18T01:12:52.124Z,0
2016-05-18T01:13:52.160Z,0
2016-05-18T01:14:52.208Z,0
2016-05-18T01:15:52.226Z,0
2016-05-18T01:16:52.245Z,0
2016-05-18T01:17:52.295Z,0
2016-05-18T01:18:52.016Z,0
2016-05-18T01:19:52.362Z,0
2016-05-18T01:20:52.397Z,0
2016-05-18T01:21:52.274Z,0
2016-05-18T01:22:52.809Z,0
2016-05-18T01:23:52.357Z,0
2016-05-18T01:24:52.375Z,0
2016-05-18T01:25:52.551Z,0
2016-05-18T01:26:52.287Z,0
2016-05-18T01:27:52.634Z,0
2016-05-18T01:28:52.653Z,0
2016-05-18T01:29:52.686Z,0
2016-05-18T01:30:52.595Z,0
2016-05-18T01:31:52.769Z,0
2016-05-18T01:32:52.804Z,0
2016-05-18T01:33:52.838Z,0
2016-05-18T01:34:52.872Z,0
2016-05-18T01:35:52.889Z,0
2016-05-18T01:36:52.783Z,0
2016-05-18T01:37:53.583Z,0
2016-05-18T01:38:52.991Z,0
2016-05-18T01:39:52.885Z,0
2016-05-18T01:40:53.060Z,0
2016-05-18T01:41:53.110Z,0
2016-05-18T01:42:53.127Z,0
2016-05-18T01:43:53.177Z,0
2016-05-18T01:44:53.211Z,0
2016-05-18T01:45:53.260Z,0
2016-05-18T01:46:53.263Z,0
2016-05-18T01:47:53.172Z,0
2016-05-18T01:48:53.191Z,0
2016-05-18T01:49:53.209Z,0
2016-05-18T01:50:53.087Z,0
2016-05-18T01:51:53.432Z,0
2016-05-18T01:52:53.498Z,0
2016-05-18T01:53:53.517Z,0
2016-05-18T01:54:53.550Z,0
2016-05-18T01:55:53.412Z,0
2016-05-18T01:56:53.603Z,0
2016-05-18T01:57:53.637Z,0
2016-05-18T01:58:53.670Z,0
2016-05-18T01:59:53.564Z,0
2016-05-18T02:00:53.582Z,0
2016-05-18T02:01:53.616Z,0
2016-05-18T02:02:53.651Z,0
2016-05-18T02:03:53.856Z,0
2016-05-18T02:04:53.889Z,0
2016-05-18T02:05:53.924Z,0
2016-05-18T02:06:53.942Z,0
2016-05-18T02:07:53.913Z,0
2016-05-18T02:08:53.713Z,0
2016-05-18T02:09:54.044Z,0
2016-05-18T02:10:53.921Z,0
2016-05-18T02:11:54.128Z,0
2016-05-18T02:12:54.021Z,0
2016-05-18T02:13:54.195Z,0
2016-05-18T02:14:53.917Z,0
2016-05-18T02:15:54.091Z,0
2016-05-18T02:16:54.125Z,0
2016-05-18T02:17:54.174Z,0
2016-05-18T02:18:54.193Z,0
2016-05-18T02:19:54.383Z,0
2016-05-18T02:20:54.260Z,0
2016-05-18T02:21:54.295Z,0
2016-05-18T02:22:54.751Z,0
2016-05-18T02:23:54.379Z,0
2016-05-18T02:24:54.553Z,0
2016-05-18T02:25:54.587Z,0
2016-05-18T02:26:54.465Z,0
2016-05-18T02:27:54.498Z,0
2016-05-18T02:28:54.376Z,0
2016-05-18T02:29:54.722Z,0
2016-05-18T02:30:54.757Z,0
2016-05-18T02:31:54.790Z,0
2016-05-18T02:32:54.840Z,0
2016-05-18T02:33:54.858Z,0
2016-05-18T02:34:54.908Z,0
2016-05-18T02:35:54.926Z,0
2016-05-18T02:36:54.961Z,0
2016-05-18T02:37:55.135Z,0
2016-05-18T02:38:55.028Z,0
2016-05-18T02:39:55.062Z,0
2016-05-18T02:40:54.939Z,0
2016-05-18T02:41:55.130Z,0
2016-05-18T02:42:55.164Z,0
2016-05-18T02:43:55.197Z,0
2016-05-18T02:44:55.232Z,0
2016-05-18T02:45:55.124Z,0
2016-05-18T02:46:54.988Z,0
2016-05-18T02:47:55.333Z,0
2016-05-18T02:48:55.243Z,0
2016-05-18T02:49:55.401Z,0
2016-05-18T02:50:55.280Z,0
2016-05-18T02:51:55.298Z,0
2016-05-18T02:52:55.659Z,0
2016-05-18T02:53:55.382Z,0
2016-05-18T02:54:55.571Z,0
2016-05-18T02:55:55.604Z,0
2016-05-18T02:56:55.482Z,0
2016-05-18T02:57:55.673Z,0
2016-05-18T02:58:55.707Z,0
2016-05-18T02:59:55.584Z,0
2016-05-18T03:00:55.775Z,0
2016-05-18T03:01:55.653Z,0
2016-05-18T03:02:55.686Z,0
2016-05-18T03:03:55.736Z,0
2016-05-18T03:04:55.754Z,0
2016-05-18T03:05:55.945Z,0
2016-05-18T03:06:55.978Z,0
2016-05-18T03:07:56.091Z,0
2016-05-18T03:08:56.046Z,0
2016-05-18T03:09:56.096Z,0
2016-05-18T03:10:56.099Z,0
2016-05-18T03:11:55.991Z,0
2016-05-18T03:12:55.870Z,0
2016-05-18T03:13:56.232Z,0
2016-05-18T03:14:56.249Z,0
2016-05-18T03:15:56.143Z,0
2016-05-18T03:16:56.302Z,0
2016-05-18T03:17:56.352Z,0
2016-05-18T03:18:56.385Z,0
2016-05-18T03:19:56.405Z,0
2016-05-18T03:20:56.282Z,0
2016-05-18T03:21:56.487Z,0
2016-05-18T03:22:57.037Z,0
2016-05-18T03:23:56.398Z,0
2016-05-18T03:24:56.574Z,0
2016-05-18T03:25:56.654Z,0
2016-05-18T03:26:56.657Z,0
2016-05-18T03:27:56.676Z,0
2016-05-18T03:28:56.725Z,0
2016-05-18T03:29:56.743Z,0
2016-05-18T03:30:56.793Z,0
2016-05-18T03:31:56.656Z,0
2016-05-18T03:32:56.876Z,0
2016-05-18T03:33:56.739Z,0
2016-05-18T03:34:56.913Z,0
2016-05-18T03:35:56.853Z,0
2016-05-18T03:36:56.825Z,5
2016-05-18T03:37:57.061Z,5
2016-05-18T03:38:57.065Z,5
2016-05-18T03:39:57.082Z,5
2016-05-18T03:40:56.975Z,5
2016-05-18T03:41:56.994Z,5
2016-05-18T03:42:57.200Z,5
2016-05-18T03:43:57.219Z,5
2016-05-18T03:44:57.269Z,5
2016-05-18T03:45:57.130Z,5
2016-05-18T03:46:57.039Z,5
2016-05-18T03:47:57.370Z,10
2016-05-18T03:48:57.232Z,10
2016-05-18T03:49:57.422Z,10
2016-05-18T03:50:57.472Z,10
2016-05-18T03:51:57.490Z,10
2016-05-18T03:52:57.399Z,10
2016-05-18T03:53:57.401Z,10
2016-05-18T03:54:57.593Z,10
2016-05-18T03:55:57.470Z,10
2016-05-18T03:56:57.660Z,15
2016-05-18T03:57:57.694Z,15
2016-05-18T03:58:57.571Z,15
2016-05-18T03:59:57.762Z,15
2016-05-18T04:00:57.795Z,15
2016-05-18T04:01:57.845Z,15
2016-05-18T04:02:57.723Z,15
2016-05-18T04:03:57.913Z,15
2016-05-18T04:04:57.775Z,20
2016-05-18T04:05:57.809Z,20
2016-05-18T04:06:57.843Z,20
2016-05-18T04:07:58.127Z,20
2016-05-18T04:08:57.911Z,20
2016-05-18T04:09:57.773Z,20
2016-05-18T04:10:58.150Z,20
2016-05-18T04:11:58.184Z,20
2016-05-18T04:12:58.062Z,25
2016-05-18T04:13:57.925Z,25
2016-05-18T04:14:58.114Z,25
2016-05-18T04:15:58.336Z,25
2016-05-18T04:16:58.182Z,30
2016-05-18T04:17:58.372Z,30
2016-05-18T04:18:58.250Z,30
2016-05-18T04:19:58.440Z,30
2016-05-18T04:20:58.163Z,30
2016-05-18T04:21:58.352Z,35
2016-05-18T04:22:59.199Z,35
2016-05-18T04:23:58.576Z,35
2016-05-18T04:24:58.438Z,40
2016-05-18T04:25:58.488Z,45
2016-05-18T04:26:58.506Z,45
2016-05-18T04:27:58.713Z,50
2016-05-18T04:28:58.434Z,55
2016-05-18T04:29:58.779Z,55
2016-05-18T04:30:58.814Z,55
2016-05-18T04:31:58.831Z,60
2016-05-18T04:32:58.881Z,60
2016-05-18T04:33:58.759Z,65
2016-05-18T04:34:58.793Z,60
2016-05-18T04:35:59.187Z,65
2016-05-18T04:36:59.034Z,65
2016-05-18T04:37:58.911Z,65
2016-05-18T04:38:58.929Z,65
2016-05-18T04:39:58.948Z,65
2016-05-18T04:40:58.841Z,65
2016-05-18T04:41:59.187Z,60
2016-05-18T04:42:58.892Z,60
2016-05-18T04:43:59.099Z,55
2016-05-18T04:44:59.273Z,55
2016-05-18T04:45:59.167Z,55
2016-05-18T04:46:59.341Z,55
2016-05-18T04:47:59.375Z,55
2016-05-18T04:48:59.283Z,55
2016-05-18T04:49:59.286Z,50
2016-05-18T04:50:59.477Z,55
2016-05-18T04:51:59.511Z,55
2016-05-18T04:52:59.561Z,55
2016-05-18T04:53:59.610Z,50
2016-05-18T04:54:59.457Z,45
2016-05-18T04:55:59.021Z,45
2016-05-18T04:56:59.696Z,50
2016-05-18T04:57:59.573Z,50
2016-05-18T04:58:59.765Z,50
2016-05-18T04:59:59.485Z,45
2016-05-18T05:00:59.660Z,45
2016-05-18T05:01:59.694Z,45
2016-05-18T05:02:59.884Z,45
2016-05-18T05:03:59.918Z,45
2016-05-18T05:04:59.967Z,40
2016-05-18T05:06:00.001Z,40
2016-05-18T05:06:59.895Z,40
2016-05-18T05:08:00.303Z,35
2016-05-18T05:09:00.103Z,30
2016-05-18T05:10:00.123Z,25
2016-05-18T05:11:00.155Z,25
2016-05-18T05:12:00.220Z,25
2016-05-18T05:13:00.083Z,25
2016-05-18T05:14:00.273Z,25
2016-05-18T05:15:00.307Z,30
2016-05-18T05:16:00.185Z,30
2016-05-18T05:17:00.203Z,35
2016-05-18T05:18:00.394Z,35
2016-05-18T05:19:00.444Z,35
2016-05-18T05:20:00.461Z,35
2016-05-18T05:21:00.369Z,35
2016-05-18T05:22:00.372Z,30
2016-05-18T05:23:00.594Z,25
2016-05-18T05:24:00.457Z,25
2016-05-18T05:25:00.647Z,25
2016-05-18T05:26:00.352Z,30
2016-05-18T05:27:00.730Z,30
2016-05-18T05:28:00.435Z,35
2016-05-18T05:29:00.767Z,35
2016-05-18T05:30:00.644Z,35
2016-05-18T05:31:00.693Z,40
2016-05-18T05:32:00.884Z,45
2016-05-18T05:33:00.902Z,45
2016-05-18T05:34:00.952Z,45
2016-05-18T05:35:00.986Z,45
2016-05-18T05:36:01.004Z,45
2016-05-18T05:37:01.053Z,45
2016-05-18T05:38:01.573Z,40
2016-05-18T05:39:01.106Z,40
2016-05-18T05:40:01.171Z,35
2016-05-18T05:41:01.018Z,35
2016-05-18T05:42:01.223Z,30
2016-05-18T05:43:01.258Z,30
2016-05-18T05:44:01.291Z,30
2016-05-18T05:45:01.309Z,30
2016-05-18T05:46:01.031Z,30
2016-05-18T05:47:01.393Z,30
2016-05-18T05:48:01.442Z,40
2016-05-18T05:49:01.445Z,45
2016-05-18T05:50:01.338Z,50
2016-05-18T05:51:01.513Z,50
2016-05-18T05:52:01.563Z,45
2016-05-18T05:53:01.580Z,40
2016-05-18T05:54:01.302Z,35
2016-05-18T05:55:01.649Z,35
2016-05-18T05:56:01.714Z,40
2016-05-18T05:57:01.717Z,45
2016-05-18T05:58:01.595Z,45
2016-05-18T05:59:01.816Z,45
2016-05-18T06:00:01.818Z,50
2016-05-18T06:01:01.399Z,50
2016-05-18T06:02:01.902Z,50
2016-05-18T06:03:01.937Z,55
2016-05-18T06:04:01.985Z,55
2016-05-18T06:05:02.004Z,50
2016-05-18T06:06:02.023Z,40
2016-05-18T06:07:01.900Z,40
2016-05-18T06:08:02.496Z,40
2016-05-18T06:09:02.140Z,40
2016-05-18T06:10:02.017Z,50
2016-05-18T06:11:01.895Z,55
2016-05-18T06:12:02.257Z,60
2016-05-18T06:13:02.259Z,65
2016-05-18T06:14:02.309Z,70
2016-05-18T06:15:02.327Z,80
2016-05-18T06:16:02.377Z,90
2016-05-18T06:17:02.428Z,100
2016-05-18T06:18:02.430Z,110
2016-05-18T06:19:02.479Z,115
2016-05-18T06:20:02.513Z,110
2016-05-18T06:21:02.547Z,110
2016-05-18T06:22:02.581Z,110
2016-05-18T06:23:02.630Z,110
2016-05-18T06:24:02.508Z,115
2016-05-18T06:25:02.542Z,120
2016-05-18T06:26:02.732Z,125
2016-05-18T06:27:02.766Z,130
2016-05-18T06:28:02.800Z,130
2016-05-18T06:29:02.662Z,135
2016-05-18T06:30:02.712Z,135
2016-05-18T06:31:02.887Z,140
2016-05-18T06:32:02.779Z,145
2016-05-18T06:33:02.954Z,150
2016-05-18T06:34:02.879Z,155
2016-05-18T06:35:03.038Z,155
2016-05-18T06:36:02.916Z,160
2016-05-18T06:37:03.106Z,170
2016-05-18T06:38:03.249Z,175
2016-05-18T06:39:03.173Z,180
2016-05-18T06:40:03.207Z,175
2016-05-18T06:41:03.257Z,180
2016-05-18T06:42:03.276Z,185
2016-05-18T06:43:03.153Z,195
2016-05-18T06:44:03.358Z,200
2016-05-18T06:45:03.392Z,205
2016-05-18T06:46:03.270Z,210
2016-05-18T06:47:03.289Z,215
2016-05-18T06:48:03.525Z,215
2016-05-18T06:49:03.545Z,220
2016-05-18T06:50:03.563Z,225
2016-05-18T06:51:03.597Z,230
2016-05-18T06:52:03.475Z,230
2016-05-18T06:53:03.992Z,235
2016-05-18T06:54:03.683Z,240
2016-05-18T06:55:03.561Z,250
2016-05-18T06:56:03.625Z,255
2016-05-18T06:57:03.816Z,260
2016-05-18T06:58:03.772Z,270
2016-05-18T06:59:03.868Z,275
2016-05-18T07:00:03.902Z,285
2016-05-18T07:01:03.796Z,290
2016-05-18T07:02:03.813Z,300
2016-05-18T07:03:03.941Z,305
2016-05-18T07:04:04.054Z,315
2016-05-18T07:05:04.087Z,315
2016-05-18T07:06:03.809Z,320
2016-05-18T07:07:04.155Z,325
2016-05-18T07:08:04.204Z,330
2016-05-18T07:09:04.254Z,345
2016-05-18T07:10:04.117Z,355
2016-05-18T07:11:04.307Z,370
2016-05-18T07:12:04.184Z,375
2016-05-18T07:13:04.375Z,365
2016-05-18T07:14:04.439Z,380
2016-05-18T07:15:04.287Z,385
2016-05-18T07:16:04.164Z,395
2016-05-18T07:17:04.214Z,395
2016-05-18T07:18:04.559Z,390
2016-05-18T07:19:04.437Z,390
2016-05-18T07:20:04.487Z,380
2016-05-18T07:21:04.677Z,375
2016-05-18T07:22:04.570Z,380
2016-05-18T07:23:04.605Z,385
2016-05-18T07:24:04.638Z,390
2016-05-18T07:25:04.500Z,385
2016-05-18T07:26:04.847Z,395
2016-05-18T07:27:04.881Z,410
2016-05-18T07:28:04.930Z,425
2016-05-18T07:29:04.980Z,435
2016-05-18T07:30:04.999Z,430
2016-05-18T07:31:04.877Z,395
2016-05-18T07:32:04.927Z,385
2016-05-18T07:33:05.147Z,400
2016-05-18T07:34:05.149Z,405
2016-05-18T07:35:05.199Z,405
2016-05-18T07:36:05.233Z,400
2016-05-18T07:37:05.111Z,410
2016-05-18T07:38:06.285Z,415
2016-05-18T07:39:05.179Z,415
2016-05-18T07:40:05.212Z,415
2016-05-18T07:41:05.419Z,430
2016-05-18T07:42:05.296Z,500
2016-05-18T07:43:05.487Z,525
2016-05-18T07:44:05.551Z,540
2016-05-18T07:45:05.554Z,535
2016-05-18T07:46:07.135Z,615
2016-05-18T07:47:05.654Z,530
2016-05-18T07:48:05.687Z,510
2016-05-18T07:49:05.706Z,565
2016-05-18T07:50:05.786Z,1275
2016-05-18T07:51:05.820Z,555
2016-05-18T07:52:05.839Z,730
2016-05-18T07:53:05.857Z,675
2016-05-18T07:54:05.906Z,900
2016-05-18T07:55:05.784Z,540
2016-05-18T07:56:05.991Z,830
2016-05-18T07:57:06.039Z,955
2016-05-18T07:58:06.121Z,755
2016-05-18T07:59:05.935Z,700
2016-05-18T08:00:06.142Z,665
2016-05-18T08:01:06.176Z,695
2016-05-18T08:02:06.225Z,1070
2016-05-18T08:03:06.119Z,1215
2016-05-18T08:04:06.308Z,820
2016-05-18T08:05:06.327Z,805
2016-05-18T08:06:06.236Z,795
2016-05-18T08:07:06.160Z,685
2016-05-18T08:08:06.351Z,1265
2016-05-18T08:09:06.369Z,1245
2016-05-18T08:10:06.544Z,1235
2016-05-18T08:11:06.577Z,1285
2016-05-18T08:12:06.627Z,1355
2016-05-18T08:13:06.520Z,1305
2016-05-18T08:14:06.242Z,1220
2016-05-18T08:15:06.760Z,1275
2016-05-18T08:16:06.809Z,1335
2016-05-18T08:17:06.672Z,1340
2016-05-18T08:18:06.861Z,1385
2016-05-18T08:19:06.911Z,1370
2016-05-18T08:20:06.805Z,1325
2016-05-18T08:21:06.839Z,1315
2016-05-18T08:22:06.889Z,1235
2016-05-18T08:23:07.501Z,1150
2016-05-18T08:24:07.331Z,1135
2016-05-18T08:25:07.162Z,1170
2016-05-18T08:26:07.087Z,1190
2016-05-18T08:27:07.105Z,1270
2016-05-18T08:28:07.305Z,1350
2016-05-18T08:29:07.398Z,1390
2016-05-18T08:30:07.333Z,1430
2016-05-18T08:31:07.565Z,1090
2016-05-18T08:32:07.642Z,660
2016-05-18T08:33:07.726Z,485
2016-05-18T08:34:07.776Z,485
2016-05-18T08:35:07.732Z,425
2016-05-18T08:36:07.749Z,370
2016-05-18T08:37:07.799Z,405
2016-05-18T08:38:08.033Z,1395
2016-05-18T08:39:08.072Z,580
2016-05-18T08:40:07.971Z,1185
2016-05-18T08:41:07.854Z,725
2016-05-18T08:42:08.081Z,670
2016-05-18T08:43:08.151Z,960
2016-05-18T08:44:08.000Z,455
2016-05-18T08:45:08.364Z,335
2016-05-18T08:46:08.416Z,275
2016-05-18T08:47:08.453Z,260
2016-05-18T08:48:08.503Z,275
2016-05-18T08:49:08.539Z,580
2016-05-18T08:50:08.432Z,720
2016-05-18T08:51:08.498Z,465
2016-05-18T08:52:08.658Z,480
2016-05-18T08:53:08.958Z,530
2016-05-18T08:54:08.758Z,425
2016-05-18T08:55:08.776Z,450
2016-05-18T08:56:08.514Z,520
2016-05-18T08:57:08.875Z,640
2016-05-18T08:58:08.909Z,880
2016-05-18T08:59:08.818Z,545
2016-05-18T09:00:08.993Z,500
2016-05-18T09:01:09.042Z,465
2016-05-18T09:02:09.076Z,460
2016-05-18T09:03:09.126Z,515
2016-05-18T09:04:09.004Z,555
2016-05-18T09:05:09.053Z,940
2016-05-18T09:06:08.946Z,875
2016-05-18T09:07:09.121Z,550
2016-05-18T09:08:09.357Z,730
2016-05-18T09:09:09.376Z,820
2016-05-18T09:10:09.410Z,795
2016-05-18T09:11:09.460Z,775
2016-05-18T09:12:09.509Z,505
2016-05-18T09:13:09.387Z,385
2016-05-18T09:14:09.609Z,350
2016-05-18T09:15:09.611Z,290
2016-05-18T09:16:09.661Z,265
2016-05-18T09:17:09.695Z,265
2016-05-18T09:18:09.729Z,280
2016-05-18T09:19:09.809Z,300
2016-05-18T09:20:09.828Z,310
2016-05-18T09:21:09.877Z,285
2016-05-18T09:22:09.598Z,265
2016-05-18T09:23:10.570Z,230
2016-05-18T09:24:09.995Z,215
2016-05-18T09:25:10.013Z,200
2016-05-18T09:26:10.063Z,190
2016-05-18T09:27:09.800Z,185
2016-05-18T09:28:10.146Z,185
2016-05-18T09:29:10.211Z,200
2016-05-18T09:30:10.229Z,245
2016-05-18T09:31:10.138Z,275
2016-05-18T09:32:10.360Z,305
2016-05-18T09:33:10.347Z,315
2016-05-18T09:34:24.599Z,370
2016-05-18T09:35:10.415Z,435
2016-05-18T09:36:10.465Z,690
2016-05-18T09:37:10.498Z,1105
2016-05-18T09:38:10.798Z,1650
2016-05-18T09:39:10.598Z,960
2016-05-18T09:40:10.616Z,830
2016-05-18T09:41:10.681Z,930
2016-05-18T09:42:10.715Z,1045
2016-05-18T09:43:10.748Z,900
2016-05-18T09:44:10.798Z,895
2016-05-18T09:45:10.535Z,1050
2016-05-18T09:46:10.867Z,1645
2016-05-18T09:47:10.915Z,890
2016-05-18T09:48:10.950Z,560
2016-05-18T09:49:10.843Z,520
2016-05-18T09:50:11.033Z,475
2016-05-18T09:51:10.942Z,330
2016-05-18T09:52:11.117Z,260
2016-05-18T09:53:11.354Z,225
2016-05-18T09:54:11.216Z,185
2016-05-18T09:55:11.250Z,165
2016-05-18T09:56:11.300Z,160
2016-05-18T09:57:11.365Z,160
2016-05-18T09:58:11.383Z,160
2016-05-18T09:59:11.433Z,170
2016-05-18T10:00:11.294Z,190
2016-05-18T10:01:11.360Z,205
2016-05-18T10:02:11.238Z,230
2016-05-18T10:03:11.569Z,250
2016-05-18T10:04:11.618Z,265
2016-05-18T10:05:11.668Z,275
2016-05-18T10:06:11.717Z,265
2016-05-18T10:07:11.751Z,250
2016-05-18T10:08:11.801Z,250
2016-05-18T10:09:11.694Z,260
2016-05-18T10:10:11.712Z,240
2016-05-18T10:11:11.918Z,390
2016-05-18T10:12:11.952Z,195
2016-05-18T10:13:11.985Z,195
2016-05-18T10:14:11.895Z,200
2016-05-18T10:15:11.913Z,190
2016-05-18T10:16:11.962Z,180
2016-05-18T10:17:11.996Z,165
2016-05-18T10:18:12.187Z,155
2016-05-18T10:19:12.065Z,155
2016-05-18T10:20:11.817Z,155
2016-05-18T10:21:11.992Z,160
2016-05-18T10:22:12.354Z,170
2016-05-18T10:23:12.559Z,190
2016-05-18T10:24:12.265Z,235
2016-05-18T10:25:12.472Z,300
2016-05-18T10:26:12.349Z,400
2016-05-18T10:27:12.586Z,515
2016-05-18T10:28:12.573Z,425
2016-05-18T10:29:12.466Z,790
2016-05-18T10:30:12.344Z,405
2016-05-18T10:31:12.706Z,355
2016-05-18T10:32:12.600Z,290
2016-05-18T10:33:12.618Z,270
2016-05-18T10:34:12.511Z,255
2016-05-18T10:35:12.858Z,235
2016-05-18T10:36:12.736Z,215
2016-05-18T10:37:12.800Z,185
2016-05-18T10:38:12.818Z,185
2016-05-18T10:39:12.915Z,180
2016-05-18T10:40:12.902Z,175
2016-05-18T10:41:13.108Z,165
2016-05-18T10:42:13.002Z,160
2016-05-18T10:43:13.020Z,160
2016-05-18T10:44:13.054Z,150
2016-05-18T10:45:13.260Z,140
2016-05-18T10:46:13.309Z,130
2016-05-18T10:47:13.327Z,135
2016-05-18T10:48:13.377Z,140
2016-05-18T10:49:13.271Z,145
2016-05-18T10:50:13.445Z,160
2016-05-18T10:51:13.478Z,170
2016-05-18T10:52:13.513Z,175
2016-05-18T10:53:13.422Z,175
2016-05-18T10:54:13.643Z,170
2016-05-18T10:55:13.631Z,165
2016-05-18T10:56:13.680Z,170
2016-05-18T10:57:13.714Z,165
2016-05-18T10:58:13.779Z,175
2016-05-18T10:59:13.656Z,175
2016-05-18T11:00:13.831Z,170
2016-05-18T11:01:13.709Z,170
2016-05-18T11:02:13.931Z,195
2016-05-18T11:03:13.933Z,225
2016-05-18T11:04:13.827Z,230
2016-05-18T11:05:14.032Z,215
2016-05-18T11:06:14.066Z,225
2016-05-18T11:07:14.100Z,250
2016-05-18T11:08:14.088Z,285
2016-05-18T11:09:14.183Z,345
2016-05-18T11:10:14.201Z,455
2016-05-18T11:11:14.111Z,565
2016-05-18T11:12:14.301Z,585
2016-05-18T11:13:14.179Z,665
2016-05-18T11:14:14.213Z,840
2016-05-18T11:15:14.262Z,1060
2016-05-18T11:16:14.295Z,950
2016-05-18T11:17:14.487Z,1280
2016-05-18T11:18:14.364Z,755
2016-05-18T11:19:14.273Z,650
2016-05-18T11:20:14.462Z,660
2016-05-18T11:21:14.637Z,690
2016-05-18T11:22:14.531Z,1360
2016-05-18T11:23:14.581Z,915
2016-05-18T11:24:14.645Z,1445
2016-05-18T11:25:14.804Z,1005
2016-05-18T11:26:14.854Z,650
2016-05-18T11:27:14.903Z,605
2016-05-18T11:28:14.782Z,915
2016-05-18T11:29:14.972Z,690
2016-05-18T11:30:14.880Z,595
2016-05-18T11:31:14.914Z,500
2016-05-18T11:32:15.089Z,445
2016-05-18T11:33:15.138Z,410
2016-05-18T11:34:15.032Z,375
2016-05-18T11:35:15.066Z,350
2016-05-18T11:36:15.272Z,330
2016-05-18T11:37:15.305Z,315
2016-05-18T11:38:29.527Z,300
2016-05-18T11:39:15.389Z,300
2016-05-18T11:40:15.126Z,340
2016-05-18T11:41:15.488Z,440
2016-05-18T11:42:15.382Z,1485
2016-05-18T11:43:15.557Z,800
2016-05-18T11:44:15.293Z,725
2016-05-18T11:45:15.483Z,850
2016-05-18T11:46:15.548Z,1570
2016-05-18T11:47:15.754Z,1180
2016-05-18T11:48:15.773Z,1205
2016-05-18T11:49:15.822Z,690
2016-05-18T11:50:15.701Z,640
2016-05-18T11:51:15.781Z,640
2016-05-18T11:52:15.939Z,630
2016-05-18T11:53:16.162Z,1255
2016-05-18T11:54:16.039Z,1285
2016-05-18T11:55:16.089Z,730
2016-05-18T11:56:16.137Z,755
2016-05-18T11:57:15.703Z,1155
2016-05-18T11:58:15.909Z,745
2016-05-18T11:59:15.942Z,570
2016-05-18T12:00:16.133Z,575
2016-05-18T12:01:16.183Z,420
2016-05-18T12:02:16.388Z,350
2016-05-18T12:03:16.266Z,305
2016-05-18T12:04:16.331Z,290
2016-05-18T12:05:16.522Z,270
2016-05-18T12:06:16.539Z,250
2016-05-18T12:07:16.433Z,235
2016-05-18T12:08:17.077Z,215
2016-05-18T12:09:16.672Z,210
2016-05-18T12:10:16.566Z,205
2016-05-18T12:11:16.632Z,180
2016-05-18T12:12:16.822Z,150
2016-05-18T12:13:16.699Z,135
2016-05-18T12:14:16.921Z,130
2016-05-18T12:15:16.938Z,125
2016-05-18T12:16:16.973Z,115
2016-05-18T12:17:16.851Z,110
2016-05-18T12:18:17.056Z,110
2016-05-18T12:19:17.091Z,105
2016-05-18T12:20:16.984Z,95
2016-05-18T12:21:17.033Z,90
2016-05-18T12:22:17.240Z,80
2016-05-18T12:23:17.742Z,75
2016-05-18T12:24:17.556Z,75
2016-05-18T12:25:17.185Z,70
2016-05-18T12:26:17.406Z,70
2016-05-18T12:27:17.128Z,65
2016-05-18T12:28:17.177Z,65
2016-05-18T12:29:17.351Z,65
2016-05-18T12:30:17.542Z,70
2016-05-18T12:31:17.450Z,75
2016-05-18T12:32:17.625Z,80
2016-05-18T12:33:17.659Z,80
2016-05-18T12:34:17.568Z,80
2016-05-18T12:35:17.743Z,80
2016-05-18T12:36:17.792Z,85
2016-05-18T12:37:17.826Z,85
2016-05-18T12:38:17.423Z,85
2016-05-18T12:39:17.910Z,90
2016-05-18T12:40:17.787Z,90
2016-05-18T12:41:17.821Z,95
2016-05-18T12:42:18.027Z,95
2016-05-18T12:43:17.905Z,95
2016-05-18T12:44:18.095Z,95
2016-05-18T12:45:18.129Z,95
2016-05-18T12:46:18.022Z,105
2016-05-18T12:47:18.057Z,110
2016-05-18T12:48:18.262Z,115
2016-05-18T12:49:18.295Z,115
2016-05-18T12:50:18.174Z,120
2016-05-18T12:51:18.379Z,125
2016-05-18T12:52:18.257Z,125
2016-05-18T12:53:18.823Z,125
2016-05-18T12:54:18.465Z,125
2016-05-18T12:55:18.359Z,130
2016-05-18T12:56:18.565Z,135
2016-05-18T12:57:18.599Z,145
2016-05-18T12:58:18.633Z,150
2016-05-18T12:59:18.667Z,155
2016-05-18T13:00:19.888Z,165
2016-05-18T13:01:18.750Z,175
2016-05-18T13:02:18.800Z,190
2016-05-18T13:03:18.818Z,205
2016-05-18T13:04:18.883Z,225
2016-05-18T13:05:21.808Z,245
2016-05-18T13:06:18.951Z,255
2016-05-18T13:07:19.017Z,275
2016-05-18T13:08:19.066Z,295
2016-05-18T13:09:19.053Z,315
2016-05-18T13:10:18.619Z,325
2016-05-18T13:11:18.824Z,345
2016-05-18T13:12:19.186Z,380
2016-05-18T13:13:19.048Z,385
2016-05-18T13:14:19.254Z,400
2016-05-18T13:15:18.975Z,400
2016-05-18T13:16:19.182Z,400
2016-05-18T13:17:19.215Z,390
2016-05-18T13:18:19.390Z,380
2016-05-18T13:19:19.440Z,380
2016-05-18T13:20:19.348Z,365
2016-05-18T13:21:19.523Z,355
2016-05-18T13:22:19.432Z,335
2016-05-18T13:23:21.153Z,315
2016-05-18T13:24:19.937Z,300
2016-05-18T13:25:20.142Z,290
2016-05-18T13:26:19.567Z,285
2016-05-18T13:27:19.617Z,285
2016-05-18T13:28:19.885Z,285
2016-05-18T13:29:19.825Z,285
2016-05-18T13:30:19.875Z,290
2016-05-18T13:31:19.627Z,290
2016-05-18T13:32:19.803Z,295
2016-05-18T13:33:19.852Z,305
2016-05-18T13:34:19.870Z,315
2016-05-18T13:35:19.936Z,305
2016-05-18T13:36:19.970Z,320
2016-05-18T13:37:20.159Z,335
2016-05-18T13:38:20.444Z,365
2016-05-18T13:39:19.914Z,385
2016-05-18T13:40:20.277Z,420
2016-05-18T13:41:20.155Z,475
2016-05-18T13:42:20.219Z,570
2016-05-18T13:43:20.394Z,645
2016-05-18T13:44:20.288Z,505
2016-05-18T13:45:20.478Z,460
2016-05-18T13:46:20.512Z,430
2016-05-18T13:47:20.577Z,420
2016-05-18T13:48:20.596Z,420
2016-05-18T13:49:20.645Z,400
2016-05-18T13:50:20.663Z,375
2016-05-18T13:51:20.713Z,355
2016-05-18T13:52:20.762Z,340
2016-05-18T13:53:20.827Z,325
2016-05-18T13:54:20.845Z,310
2016-05-18T13:55:20.896Z,290
2016-05-18T13:56:20.929Z,270
2016-05-18T13:57:20.823Z,260
2016-05-18T13:58:20.997Z,240
2016-05-18T13:59:20.734Z,225
2016-05-18T14:00:20.925Z,210
2016-05-18T14:01:21.131Z,210
2016-05-18T14:02:21.164Z,200
2016-05-18T14:03:21.214Z,195
2016-05-18T14:04:20.936Z,180
2016-05-18T14:05:21.141Z,175
2016-05-18T14:06:21.175Z,170
2016-05-18T14:07:21.365Z,170